sensor_id;sensor_type;location;lat;lon;timestamp;temperature;humidity
48376;DHT22;34178;50.904;11.560;2023-12-20T00:00:58;4.90;99.90
48376;DHT22;34178;50.904;11.560;2023-12-20T00:03:24;4.90;99.90
48376;DHT22;34178;50.904;11.560;2023-12-20T00:05:50;4.90;99.90
48376;DHT22;34178;50.904;11.560;2023-12-20T00:08:16;4.90;99.90
48376;DHT22;34178;50.904;11.560;2023-12-20T00:10:42;4.90;99.90
48376;DHT22;34178;50.904;11.560;2023-12-20T00:13:08;4.80;99.90
48376;DHT22;34178;50.904;11.560;2023-12-20T00:15:34;4.80;99.90
48376;DHT22;34178;50.904;11.560;2023-12-20T00:18:00;4.80;99.90
48376;DHT22;34178;50.904;11.560;2023-12-20T00:20:26;4.80;99.90
48376;DHT22;34178;50.904;11.560;2023-12-20T00:22:53;4.80;99.90
48376;DHT22;34178;50.904;11.560;2023-12-20T00:25:19;4.90;99.90
48376;DHT22;34178;50.904;11.560;2023-12-20T00:27:44;4.90;99.90
48376;DHT22;34178;50.904;11.560;2023-12-20T00:30:11;4.80;99.90
48376;DHT22;34178;50.904;11.560;2023-12-20T00:32:36;4.90;99.90
48376;DHT22;34178;50.904;11.560;2023-12-20T00:35:02;4.80;99.90
48376;DHT22;34178;50.904;11.560;2023-12-20T00:37:28;4.80;99.90
48376;DHT22;34178;50.904;11.560;2023-12-20T00:39:54;4.90;99.90
48376;DHT22;34178;50.904;11.560;2023-12-20T00:42:19;4.80;99.90
48376;DHT22;34178;50.904;11.560;2023-12-20T00:44:45;4.90;99.90
48376;DHT22;34178;50.904;11.560;2023-12-20T00:47:11;4.90;99.90
48376;DHT22;34178;50.904;11.560;2023-12-20T00:49:37;4.90;99.90
48376;DHT22;34178;50.904;11.560;2023-12-20T00:52:02;4.90;99.90
48376;DHT22;34178;50.904;11.560;2023-12-20T00:54:28;4.90;99.90
48376;DHT22;34178;50.904;11.560;2023-12-20T00:56:56;4.90;99.90
48376;DHT22;34178;50.904;11.560;2023-12-20T00:59:21;4.90;99.90
48376;DHT22;34178;50.904;11.560;2023-12-20T01:01:47;5.00;99.90
48376;DHT22;34178;50.904;11.560;2023-12-20T01:04:13;4.90;99.90
48376;DHT22;34178;50.904;11.560;2023-12-20T01:06:38;5.00;99.90
48376;DHT22;34178;50.904;11.560;2023-12-20T01:09:04;4.90;99.90
48376;DHT22;34178;50.904;11.560;2023-12-20T01:11:30;5.00;99.90
48376;DHT22;34178;50.904;11.560;2023-12-20T01:13:55;4.90;99.90
48376;DHT22;34178;50.904;11.560;2023-12-20T01:16:21;5.00;99.90
48376;DHT22;34178;50.904;11.560;2023-12-20T01:18:46;4.90;99.90
48376;DHT22;34178;50.904;11.560;2023-12-20T01:21:12;4.90;99.90
48376;DHT22;34178;50.904;11.560;2023-12-20T01:23:38;4.90;99.90
48376;DHT22;34178;50.904;11.560;2023-12-20T01:26:03;5.00;99.90
48376;DHT22;34178;50.904;11.560;2023-12-20T01:28:31;5.00;99.90
48376;DHT22;34178;50.904;11.560;2023-12-20T01:30:57;5.00;99.90
48376;DHT22;34178;50.904;11.560;2023-12-20T01:33:23;5.10;99.90
48376;DHT22;34178;50.904;11.560;2023-12-20T01:35:49;5.00;99.90
48376;DHT22;34178;50.904;11.560;2023-12-20T01:38:15;5.00;99.90
48376;DHT22;34178;50.904;11.560;2023-12-20T01:40:44;5.10;99.90
48376;DHT22;34178;50.904;11.560;2023-12-20T01:43:09;5.00;99.90
48376;DHT22;34178;50.904;11.560;2023-12-20T01:45:37;5.00;99.90
48376;DHT22;34178;50.904;11.560;2023-12-20T01:48:03;5.00;99.90
48376;DHT22;34178;50.904;11.560;2023-12-20T01:50:31;5.10;99.90
48376;DHT22;34178;50.904;11.560;2023-12-20T01:52:59;5.10;99.90
48376;DHT22;34178;50.904;11.560;2023-12-20T01:55:27;5.20;99.90
48376;DHT22;34178;50.904;11.560;2023-12-20T01:57:55;5.20;99.90
48376;DHT22;34178;50.904;11.560;2023-12-20T02:00:23;5.20;99.90
48376;DHT22;34178;50.904;11.560;2023-12-20T02:02:53;5.20;99.90
48376;DHT22;34178;50.904;11.560;2023-12-20T02:05:21;5.20;99.90
48376;DHT22;34178;50.904;11.560;2023-12-20T02:07:47;5.20;99.90
48376;DHT22;34178;50.904;11.560;2023-12-20T02:10:13;5.20;99.90
48376;DHT22;34178;50.904;11.560;2023-12-20T02:12:39;5.10;99.90
48376;DHT22;34178;50.904;11.560;2023-12-20T02:15:06;5.20;99.90
48376;DHT22;34178;50.904;11.560;2023-12-20T02:17:32;5.20;99.90
48376;DHT22;34178;50.904;11.560;2023-12-20T02:19:58;5.20;99.90
48376;DHT22;34178;50.904;11.560;2023-12-20T02:22:23;5.20;99.90
48376;DHT22;34178;50.904;11.560;2023-12-20T02:24:49;5.20;99.90
48376;DHT22;34178;50.904;11.560;2023-12-20T02:27:15;5.20;99.90
48376;DHT22;34178;50.904;11.560;2023-12-20T02:29:43;5.20;99.90
48376;DHT22;34178;50.904;11.560;2023-12-20T02:32:09;5.20;99.90
48376;DHT22;34178;50.904;11.560;2023-12-20T02:34:34;5.20;99.90
48376;DHT22;34178;50.904;11.560;2023-12-20T02:37:00;5.20;99.90
48376;DHT22;34178;50.904;11.560;2023-12-20T02:39:26;5.20;99.90
48376;DHT22;34178;50.904;11.560;2023-12-20T02:41:51;5.20;99.90
48376;DHT22;34178;50.904;11.560;2023-12-20T02:44:17;5.20;99.90
48376;DHT22;34178;50.904;11.560;2023-12-20T02:46:43;5.20;99.90
48376;DHT22;34178;50.904;11.560;2023-12-20T02:49:08;5.30;99.90
48376;DHT22;34178;50.904;11.560;2023-12-20T02:51:34;5.30;99.90
48376;DHT22;34178;50.904;11.560;2023-12-20T02:54:00;5.20;99.90
48376;DHT22;34178;50.904;11.560;2023-12-20T02:56:25;5.30;99.90
48376;DHT22;34178;50.904;11.560;2023-12-20T02:58:51;5.30;99.90
48376;DHT22;34178;50.904;11.560;2023-12-20T03:01:17;5.30;99.90
48376;DHT22;34178;50.904;11.560;2023-12-20T03:03:42;5.30;99.90
48376;DHT22;34178;50.904;11.560;2023-12-20T03:06:08;5.30;99.90
48376;DHT22;34178;50.904;11.560;2023-12-20T03:08:33;5.30;99.90
48376;DHT22;34178;50.904;11.560;2023-12-20T03:10:59;5.30;99.90
48376;DHT22;34178;50.904;11.560;2023-12-20T03:13:25;5.30;99.90
48376;DHT22;34178;50.904;11.560;2023-12-20T03:15:51;5.30;99.90
48376;DHT22;34178;50.904;11.560;2023-12-20T03:18:16;5.30;99.90
48376;DHT22;34178;50.904;11.560;2023-12-20T03:20:43;5.30;99.90
48376;DHT22;34178;50.904;11.560;2023-12-20T03:23:09;5.30;99.90
48376;DHT22;34178;50.904;11.560;2023-12-20T03:25:34;5.30;99.90
48376;DHT22;34178;50.904;11.560;2023-12-20T03:28:00;5.30;99.90
48376;DHT22;34178;50.904;11.560;2023-12-20T03:30:26;5.30;99.90
48376;DHT22;34178;50.904;11.560;2023-12-20T03:32:51;5.30;99.90
48376;DHT22;34178;50.904;11.560;2023-12-20T03:35:17;5.30;99.90
48376;DHT22;34178;50.904;11.560;2023-12-20T03:37:43;5.30;99.90
48376;DHT22;34178;50.904;11.560;2023-12-20T03:40:09;5.30;99.90
48376;DHT22;34178;50.904;11.560;2023-12-20T03:42:35;5.30;99.90
48376;DHT22;34178;50.904;11.560;2023-12-20T03:45:00;5.30;99.90
48376;DHT22;34178;50.904;11.560;2023-12-20T03:47:26;5.30;99.90
48376;DHT22;34178;50.904;11.560;2023-12-20T03:49:52;5.20;99.90
48376;DHT22;34178;50.904;11.560;2023-12-20T03:52:18;5.30;99.90
48376;DHT22;34178;50.904;11.560;2023-12-20T03:54:44;5.30;99.90
48376;DHT22;34178;50.904;11.560;2023-12-20T03:57:09;5.30;99.90
48376;DHT22;34178;50.904;11.560;2023-12-20T03:59:36;5.30;99.90
48376;DHT22;34178;50.904;11.560;2023-12-20T04:02:02;5.30;99.90
48376;DHT22;34178;50.904;11.560;2023-12-20T04:04:28;5.30;99.90
48376;DHT22;34178;50.904;11.560;2023-12-20T04:06:54;5.30;99.90
48376;DHT22;34178;50.904;11.560;2023-12-20T04:09:19;5.30;99.90
48376;DHT22;34178;50.904;11.560;2023-12-20T04:11:45;5.30;99.90
48376;DHT22;34178;50.904;11.560;2023-12-20T04:14:11;5.30;99.90
48376;DHT22;34178;50.904;11.560;2023-12-20T04:16:36;5.40;99.90
48376;DHT22;34178;50.904;11.560;2023-12-20T04:19:02;5.40;99.90
48376;DHT22;34178;50.904;11.560;2023-12-20T04:21:28;5.40;99.90
48376;DHT22;34178;50.904;11.560;2023-12-20T04:23:53;5.40;99.90
48376;DHT22;34178;50.904;11.560;2023-12-20T04:26:19;5.40;99.90
48376;DHT22;34178;50.904;11.560;2023-12-20T04:28:45;5.40;99.90
48376;DHT22;34178;50.904;11.560;2023-12-20T04:31:10;5.50;99.90
48376;DHT22;34178;50.904;11.560;2023-12-20T04:33:36;5.50;99.90
48376;DHT22;34178;50.904;11.560;2023-12-20T04:36:02;5.50;99.90
48376;DHT22;34178;50.904;11.560;2023-12-20T04:38:27;5.50;99.90
48376;DHT22;34178;50.904;11.560;2023-12-20T04:40:53;5.50;99.90
48376;DHT22;34178;50.904;11.560;2023-12-20T04:43:19;5.50;99.90
48376;DHT22;34178;50.904;11.560;2023-12-20T04:45:44;5.50;99.90
48376;DHT22;34178;50.904;11.560;2023-12-20T04:48:10;5.50;99.90
48376;DHT22;34178;50.904;11.560;2023-12-20T04:50:36;5.50;99.90
48376;DHT22;34178;50.904;11.560;2023-12-20T04:53:01;5.50;99.90
48376;DHT22;34178;50.904;11.560;2023-12-20T04:55:27;5.60;99.90
48376;DHT22;34178;50.904;11.560;2023-12-20T04:57:53;5.60;99.90
48376;DHT22;34178;50.904;11.560;2023-12-20T05:00:18;5.60;99.90
48376;DHT22;34178;50.904;11.560;2023-12-20T05:02:44;5.60;99.90
48376;DHT22;34178;50.904;11.560;2023-12-20T05:05:10;5.60;99.90
48376;DHT22;34178;50.904;11.560;2023-12-20T05:07:36;5.50;99.90
48376;DHT22;34178;50.904;11.560;2023-12-20T05:10:02;5.60;99.90
48376;DHT22;34178;50.904;11.560;2023-12-20T05:12:30;5.60;99.90
48376;DHT22;34178;50.904;11.560;2023-12-20T05:14:56;5.50;99.90
48376;DHT22;34178;50.904;11.560;2023-12-20T05:17:21;5.50;99.90
48376;DHT22;34178;50.904;11.560;2023-12-20T05:19:47;5.50;99.90
48376;DHT22;34178;50.904;11.560;2023-12-20T05:22:13;5.60;99.90
48376;DHT22;34178;50.904;11.560;2023-12-20T05:24:39;5.50;99.90
48376;DHT22;34178;50.904;11.560;2023-12-20T05:27:04;5.50;99.90
48376;DHT22;34178;50.904;11.560;2023-12-20T05:29:30;5.50;99.90
48376;DHT22;34178;50.904;11.560;2023-12-20T05:31:57;5.50;99.90
48376;DHT22;34178;50.904;11.560;2023-12-20T05:34:23;5.70;99.90
48376;DHT22;34178;50.904;11.560;2023-12-20T05:36:49;5.70;99.90
48376;DHT22;34178;50.904;11.560;2023-12-20T05:39:15;5.80;99.90
48376;DHT22;34178;50.904;11.560;2023-12-20T05:41:41;5.80;99.90
48376;DHT22;34178;50.904;11.560;2023-12-20T05:44:06;5.80;99.90
48376;DHT22;34178;50.904;11.560;2023-12-20T05:46:32;5.80;99.90
48376;DHT22;34178;50.904;11.560;2023-12-20T05:48:58;5.80;99.90
48376;DHT22;34178;50.904;11.560;2023-12-20T05:51:24;5.80;99.90
48376;DHT22;34178;50.904;11.560;2023-12-20T05:53:49;5.80;99.90
48376;DHT22;34178;50.904;11.560;2023-12-20T05:56:15;5.80;99.90
48376;DHT22;34178;50.904;11.560;2023-12-20T05:58:41;5.80;99.90
48376;DHT22;34178;50.904;11.560;2023-12-20T06:01:07;5.80;99.90
48376;DHT22;34178;50.904;11.560;2023-12-20T06:03:34;5.80;99.90
48376;DHT22;34178;50.904;11.560;2023-12-20T06:06:04;5.80;99.90
48376;DHT22;34178;50.904;11.560;2023-12-20T06:08:29;5.80;99.90
48376;DHT22;34178;50.904;11.560;2023-12-20T06:10:55;5.80;99.90
48376;DHT22;34178;50.904;11.560;2023-12-20T06:13:21;5.90;99.90
48376;DHT22;34178;50.904;11.560;2023-12-20T06:15:46;5.80;99.90
48376;DHT22;34178;50.904;11.560;2023-12-20T06:18:12;5.80;99.90
48376;DHT22;34178;50.904;11.560;2023-12-20T06:20:37;5.80;99.90
48376;DHT22;34178;50.904;11.560;2023-12-20T06:23:03;5.90;99.90
48376;DHT22;34178;50.904;11.560;2023-12-20T06:25:29;5.90;99.90
48376;DHT22;34178;50.904;11.560;2023-12-20T06:27:54;5.90;99.90
48376;DHT22;34178;50.904;11.560;2023-12-20T06:30:20;5.90;99.90
48376;DHT22;34178;50.904;11.560;2023-12-20T06:32:46;5.90;99.90
48376;DHT22;34178;50.904;11.560;2023-12-20T06:35:12;5.90;99.90
48376;DHT22;34178;50.904;11.560;2023-12-20T06:37:38;5.90;99.90
48376;DHT22;34178;50.904;11.560;2023-12-20T06:40:09;5.90;99.90
48376;DHT22;34178;50.904;11.560;2023-12-20T06:42:35;6.00;99.90
48376;DHT22;34178;50.904;11.560;2023-12-20T06:45:00;6.00;99.90
48376;DHT22;34178;50.904;11.560;2023-12-20T06:47:26;6.00;99.90
48376;DHT22;34178;50.904;11.560;2023-12-20T06:49:52;6.00;99.90
48376;DHT22;34178;50.904;11.560;2023-12-20T06:52:18;6.00;99.90
48376;DHT22;34178;50.904;11.560;2023-12-20T06:54:43;5.90;99.90
48376;DHT22;34178;50.904;11.560;2023-12-20T06:57:09;5.90;99.90
48376;DHT22;34178;50.904;11.560;2023-12-20T06:59:39;5.80;99.90
48376;DHT22;34178;50.904;11.560;2023-12-20T07:02:05;5.70;99.90
48376;DHT22;34178;50.904;11.560;2023-12-20T07:04:31;5.70;99.90
48376;DHT22;34178;50.904;11.560;2023-12-20T07:06:57;5.60;99.90
48376;DHT22;34178;50.904;11.560;2023-12-20T07:09:22;5.50;99.90
48376;DHT22;34178;50.904;11.560;2023-12-20T07:11:48;5.50;99.90
48376;DHT22;34178;50.904;11.560;2023-12-20T07:14:14;5.30;99.90
48376;DHT22;34178;50.904;11.560;2023-12-20T07:16:40;5.30;99.90
48376;DHT22;34178;50.904;11.560;2023-12-20T07:19:06;5.20;99.90
48376;DHT22;34178;50.904;11.560;2023-12-20T07:21:31;5.20;99.90
48376;DHT22;34178;50.904;11.560;2023-12-20T07:23:57;5.30;99.90
48376;DHT22;34178;50.904;11.560;2023-12-20T07:26:23;5.40;99.90
48376;DHT22;34178;50.904;11.560;2023-12-20T07:28:49;5.50;99.90
48376;DHT22;34178;50.904;11.560;2023-12-20T07:31:18;5.40;99.90
48376;DHT22;34178;50.904;11.560;2023-12-20T07:33:44;5.40;99.90
48376;DHT22;34178;50.904;11.560;2023-12-20T07:36:09;5.30;99.90
48376;DHT22;34178;50.904;11.560;2023-12-20T07:38:35;5.30;99.90
48376;DHT22;34178;50.904;11.560;2023-12-20T07:41:01;5.20;99.90
48376;DHT22;34178;50.904;11.560;2023-12-20T07:43:26;5.20;99.90
48376;DHT22;34178;50.904;11.560;2023-12-20T07:45:52;5.20;99.90
48376;DHT22;34178;50.904;11.560;2023-12-20T07:48:18;5.20;99.90
48376;DHT22;34178;50.904;11.560;2023-12-20T07:50:43;5.10;99.90
48376;DHT22;34178;50.904;11.560;2023-12-20T07:53:09;5.10;99.90
48376;DHT22;34178;50.904;11.560;2023-12-20T07:55:35;5.20;99.90
48376;DHT22;34178;50.904;11.560;2023-12-20T07:58:00;5.20;99.90
48376;DHT22;34178;50.904;11.560;2023-12-20T08:00:27;5.20;99.90
48376;DHT22;34178;50.904;11.560;2023-12-20T08:02:52;5.20;99.90
48376;DHT22;34178;50.904;11.560;2023-12-20T08:05:18;5.30;99.90
48376;DHT22;34178;50.904;11.560;2023-12-20T08:07:44;5.30;99.90
48376;DHT22;34178;50.904;11.560;2023-12-20T08:10:10;5.30;99.90
48376;DHT22;34178;50.904;11.560;2023-12-20T08:12:36;5.30;99.90
48376;DHT22;34178;50.904;11.560;2023-12-20T08:15:02;5.30;99.90
48376;DHT22;34178;50.904;11.560;2023-12-20T08:17:29;5.40;99.90
48376;DHT22;34178;50.904;11.560;2023-12-20T08:19:56;5.40;99.90
48376;DHT22;34178;50.904;11.560;2023-12-20T08:22:21;5.50;99.90
48376;DHT22;34178;50.904;11.560;2023-12-20T08:24:47;5.60;99.90
48376;DHT22;34178;50.904;11.560;2023-12-20T08:27:13;5.70;99.90
48376;DHT22;34178;50.904;11.560;2023-12-20T08:29:39;5.70;99.90
48376;DHT22;34178;50.904;11.560;2023-12-20T08:32:05;5.80;99.90
48376;DHT22;34178;50.904;11.560;2023-12-20T08:34:30;5.80;99.90
48376;DHT22;34178;50.904;11.560;2023-12-20T08:36:56;5.80;99.90
48376;DHT22;34178;50.904;11.560;2023-12-20T08:39:22;5.90;99.90
48376;DHT22;34178;50.904;11.560;2023-12-20T08:41:48;5.90;99.90
48376;DHT22;34178;50.904;11.560;2023-12-20T08:44:14;5.90;99.90
48376;DHT22;34178;50.904;11.560;2023-12-20T08:46:39;6.00;99.90
48376;DHT22;34178;50.904;11.560;2023-12-20T08:49:05;5.90;99.90
48376;DHT22;34178;50.904;11.560;2023-12-20T08:51:31;5.90;99.90
48376;DHT22;34178;50.904;11.560;2023-12-20T08:53:56;5.80;99.90
48376;DHT22;34178;50.904;11.560;2023-12-20T08:56:22;5.70;99.90
48376;DHT22;34178;50.904;11.560;2023-12-20T08:58:48;5.70;99.90
48376;DHT22;34178;50.904;11.560;2023-12-20T09:01:14;5.70;99.90
48376;DHT22;34178;50.904;11.560;2023-12-20T09:03:40;5.80;99.90
48376;DHT22;34178;50.904;11.560;2023-12-20T09:06:06;5.70;99.90
48376;DHT22;34178;50.904;11.560;2023-12-20T09:08:32;5.70;99.90
48376;DHT22;34178;50.904;11.560;2023-12-20T09:10:58;5.70;99.90
48376;DHT22;34178;50.904;11.560;2023-12-20T09:13:24;5.70;99.90
48376;DHT22;34178;50.904;11.560;2023-12-20T09:15:56;5.70;99.90
48376;DHT22;34178;50.904;11.560;2023-12-20T09:18:22;5.80;99.90
48376;DHT22;34178;50.904;11.560;2023-12-20T09:20:48;5.80;99.90
48376;DHT22;34178;50.904;11.560;2023-12-20T09:23:14;5.80;99.90
48376;DHT22;34178;50.904;11.560;2023-12-20T09:25:39;5.80;99.90
48376;DHT22;34178;50.904;11.560;2023-12-20T09:28:05;5.80;99.90
48376;DHT22;34178;50.904;11.560;2023-12-20T09:30:31;5.80;99.90
48376;DHT22;34178;50.904;11.560;2023-12-20T09:32:57;5.90;99.90
48376;DHT22;34178;50.904;11.560;2023-12-20T09:35:23;5.90;99.90
48376;DHT22;34178;50.904;11.560;2023-12-20T09:37:49;6.00;99.90
48376;DHT22;34178;50.904;11.560;2023-12-20T09:40:18;6.00;99.90
48376;DHT22;34178;50.904;11.560;2023-12-20T09:42:55;6.20;99.90
48376;DHT22;34178;50.904;11.560;2023-12-20T09:45:21;6.20;99.90
48376;DHT22;34178;50.904;11.560;2023-12-20T09:47:52;6.30;99.90
48376;DHT22;34178;50.904;11.560;2023-12-20T09:50:20;6.20;99.90
48376;DHT22;34178;50.904;11.560;2023-12-20T09:52:50;6.20;99.90
48376;DHT22;34178;50.904;11.560;2023-12-20T09:55:18;6.10;99.90
48376;DHT22;34178;50.904;11.560;2023-12-20T09:58:08;6.10;99.90
48376;DHT22;34178;50.904;11.560;2023-12-20T10:00:37;6.10;99.90
48376;DHT22;34178;50.904;11.560;2023-12-20T10:03:03;6.10;99.90
48376;DHT22;34178;50.904;11.560;2023-12-20T10:05:32;6.00;99.90
48376;DHT22;34178;50.904;11.560;2023-12-20T10:07:58;6.00;99.90
48376;DHT22;34178;50.904;11.560;2023-12-20T10:10:24;6.10;99.90
48376;DHT22;34178;50.904;11.560;2023-12-20T10:13:07;6.10;99.90
48376;DHT22;34178;50.904;11.560;2023-12-20T10:15:34;6.10;99.90
48376;DHT22;34178;50.904;11.560;2023-12-20T10:18:04;6.20;99.90
48376;DHT22;34178;50.904;11.560;2023-12-20T10:20:30;6.30;99.90
48376;DHT22;34178;50.904;11.560;2023-12-20T10:22:57;6.50;99.90
48376;DHT22;34178;50.904;11.560;2023-12-20T10:25:24;6.60;99.90
48376;DHT22;34178;50.904;11.560;2023-12-20T10:28:08;6.60;99.90
48376;DHT22;34178;50.904;11.560;2023-12-20T10:30:34;6.60;99.90
48376;DHT22;34178;50.904;11.560;2023-12-20T10:32:59;6.60;99.90
48376;DHT22;34178;50.904;11.560;2023-12-20T10:35:25;6.60;99.90
48376;DHT22;34178;50.904;11.560;2023-12-20T10:37:55;6.60;99.90
48376;DHT22;34178;50.904;11.560;2023-12-20T10:40:26;6.70;99.90
48376;DHT22;34178;50.904;11.560;2023-12-20T10:42:52;6.70;99.90
48376;DHT22;34178;50.904;11.560;2023-12-20T10:45:19;6.80;99.90
48376;DHT22;34178;50.904;11.560;2023-12-20T10:47:46;6.80;99.90
48376;DHT22;34178;50.904;11.560;2023-12-20T10:50:14;6.90;99.90
48376;DHT22;34178;50.904;11.560;2023-12-20T10:52:41;6.90;99.90
48376;DHT22;34178;50.904;11.560;2023-12-20T10:55:08;6.80;99.90
48376;DHT22;34178;50.904;11.560;2023-12-20T10:57:36;6.80;99.90
48376;DHT22;34178;50.904;11.560;2023-12-20T11:00:02;6.80;99.90
48376;DHT22;34178;50.904;11.560;2023-12-20T11:02:38;6.90;99.90
48376;DHT22;34178;50.904;11.560;2023-12-20T11:05:28;7.10;99.90
48376;DHT22;34178;50.904;11.560;2023-12-20T11:08:07;7.20;99.90
48376;DHT22;34178;50.904;11.560;2023-12-20T11:13:20;7.20;99.90
48376;DHT22;34178;50.904;11.560;2023-12-20T11:15:48;7.20;99.90
48376;DHT22;34178;50.904;11.560;2023-12-20T11:18:15;7.20;99.90
48376;DHT22;34178;50.904;11.560;2023-12-20T11:20:41;7.10;99.90
48376;DHT22;34178;50.904;11.560;2023-12-20T11:23:10;7.10;99.90
48376;DHT22;34178;50.904;11.560;2023-12-20T11:25:48;7.20;99.90
48376;DHT22;34178;50.904;11.560;2023-12-20T11:28:15;7.20;99.90
48376;DHT22;34178;50.904;11.560;2023-12-20T11:30:57;7.30;99.90
48376;DHT22;34178;50.904;11.560;2023-12-20T11:33:30;7.30;99.90
48376;DHT22;34178;50.904;11.560;2023-12-20T11:35:56;7.30;99.90
48376;DHT22;34178;50.904;11.560;2023-12-20T11:38:23;7.30;99.90
48376;DHT22;34178;50.904;11.560;2023-12-20T11:40:49;7.30;99.90
48376;DHT22;34178;50.904;11.560;2023-12-20T11:43:53;7.30;99.90
48376;DHT22;34178;50.904;11.560;2023-12-20T11:46:19;7.40;99.90
48376;DHT22;34178;50.904;11.560;2023-12-20T11:48:46;7.40;99.90
48376;DHT22;34178;50.904;11.560;2023-12-20T11:51:13;7.30;99.90
48376;DHT22;34178;50.904;11.560;2023-12-20T11:53:40;7.30;99.90
48376;DHT22;34178;50.904;11.560;2023-12-20T11:56:08;7.30;99.90
48376;DHT22;34178;50.904;11.560;2023-12-20T11:58:34;7.20;99.90
48376;DHT22;34178;50.904;11.560;2023-12-20T12:01:00;7.20;99.90
48376;DHT22;34178;50.904;11.560;2023-12-20T12:03:27;7.20;99.90
48376;DHT22;34178;50.904;11.560;2023-12-20T12:05:53;7.20;99.90
48376;DHT22;34178;50.904;11.560;2023-12-20T12:08:19;7.20;99.90
48376;DHT22;34178;50.904;11.560;2023-12-20T12:10:45;7.30;99.90
48376;DHT22;34178;50.904;11.560;2023-12-20T12:13:11;7.40;99.90
48376;DHT22;34178;50.904;11.560;2023-12-20T12:15:37;7.40;99.90
48376;DHT22;34178;50.904;11.560;2023-12-20T12:18:03;7.50;99.90
48376;DHT22;34178;50.904;11.560;2023-12-20T12:20:30;7.40;99.90
48376;DHT22;34178;50.904;11.560;2023-12-20T12:23:04;7.40;99.90
48376;DHT22;34178;50.904;11.560;2023-12-20T12:25:31;7.40;99.90
48376;DHT22;34178;50.904;11.560;2023-12-20T12:28:01;7.40;99.90
48376;DHT22;34178;50.904;11.560;2023-12-20T12:30:27;7.50;99.90
48376;DHT22;34178;50.904;11.560;2023-12-20T12:32:53;7.50;99.90
48376;DHT22;34178;50.904;11.560;2023-12-20T12:35:19;7.60;99.90
48376;DHT22;34178;50.904;11.560;2023-12-20T12:37:46;7.60;99.90
48376;DHT22;34178;50.904;11.560;2023-12-20T12:40:13;7.60;99.90
48376;DHT22;34178;50.904;11.560;2023-12-20T12:42:40;7.60;99.90
48376;DHT22;34178;50.904;11.560;2023-12-20T12:45:07;7.50;99.90
48376;DHT22;34178;50.904;11.560;2023-12-20T12:47:33;7.50;99.90
48376;DHT22;34178;50.904;11.560;2023-12-20T12:49:59;7.60;99.90
48376;DHT22;34178;50.904;11.560;2023-12-20T12:52:25;7.50;99.90
48376;DHT22;34178;50.904;11.560;2023-12-20T12:54:53;7.50;99.90
48376;DHT22;34178;50.904;11.560;2023-12-20T12:57:18;7.40;99.90
48376;DHT22;34178;50.904;11.560;2023-12-20T12:59:45;7.40;99.90
48376;DHT22;34178;50.904;11.560;2023-12-20T13:02:12;7.30;99.90
48376;DHT22;34178;50.904;11.560;2023-12-20T13:04:39;7.30;99.90
48376;DHT22;34178;50.904;11.560;2023-12-20T13:07:05;7.20;99.90
48376;DHT22;34178;50.904;11.560;2023-12-20T13:09:31;7.30;99.90
48376;DHT22;34178;50.904;11.560;2023-12-20T13:11:57;7.30;99.90
48376;DHT22;34178;50.904;11.560;2023-12-20T13:14:22;7.20;99.90
48376;DHT22;34178;50.904;11.560;2023-12-20T13:16:48;7.20;99.90
48376;DHT22;34178;50.904;11.560;2023-12-20T13:19:14;7.10;99.90
48376;DHT22;34178;50.904;11.560;2023-12-20T13:21:40;7.10;99.90
48376;DHT22;34178;50.904;11.560;2023-12-20T13:24:06;7.10;99.90
48376;DHT22;34178;50.904;11.560;2023-12-20T13:26:32;7.10;99.90
48376;DHT22;34178;50.904;11.560;2023-12-20T13:28:58;7.10;99.90
48376;DHT22;34178;50.904;11.560;2023-12-20T13:31:24;7.10;99.90
48376;DHT22;34178;50.904;11.560;2023-12-20T13:33:49;7.10;99.90
48376;DHT22;34178;50.904;11.560;2023-12-20T13:36:16;7.10;99.90
48376;DHT22;34178;50.904;11.560;2023-12-20T13:38:43;7.20;99.90
48376;DHT22;34178;50.904;11.560;2023-12-20T13:41:08;7.30;99.90
48376;DHT22;34178;50.904;11.560;2023-12-20T13:43:34;7.30;99.90
48376;DHT22;34178;50.904;11.560;2023-12-20T13:46:00;7.40;99.90
48376;DHT22;34178;50.904;11.560;2023-12-20T13:48:26;7.30;99.90
48376;DHT22;34178;50.904;11.560;2023-12-20T13:50:51;7.30;99.90
48376;DHT22;34178;50.904;11.560;2023-12-20T13:53:17;7.20;99.90
48376;DHT22;34178;50.904;11.560;2023-12-20T13:55:44;7.20;99.90
48376;DHT22;34178;50.904;11.560;2023-12-20T13:58:10;7.20;99.90
48376;DHT22;34178;50.904;11.560;2023-12-20T14:00:36;7.10;99.90
48376;DHT22;34178;50.904;11.560;2023-12-20T14:03:03;7.10;99.90
48376;DHT22;34178;50.904;11.560;2023-12-20T14:05:29;7.00;99.90
48376;DHT22;34178;50.904;11.560;2023-12-20T14:07:55;7.00;99.90
48376;DHT22;34178;50.904;11.560;2023-12-20T14:10:23;6.90;99.90
48376;DHT22;34178;50.904;11.560;2023-12-20T14:12:49;6.90;99.90
48376;DHT22;34178;50.904;11.560;2023-12-20T14:15:14;6.80;99.90
48376;DHT22;34178;50.904;11.560;2023-12-20T14:17:41;6.70;99.90
48376;DHT22;34178;50.904;11.560;2023-12-20T14:20:10;6.70;99.90
48376;DHT22;34178;50.904;11.560;2023-12-20T14:22:38;6.80;99.90
48376;DHT22;34178;50.904;11.560;2023-12-20T14:25:04;6.70;99.90
48376;DHT22;34178;50.904;11.560;2023-12-20T14:27:31;6.70;99.90
48376;DHT22;34178;50.904;11.560;2023-12-20T14:29:57;6.70;99.90
48376;DHT22;34178;50.904;11.560;2023-12-20T14:32:24;6.70;99.90
48376;DHT22;34178;50.904;11.560;2023-12-20T14:34:50;6.60;99.90
48376;DHT22;34178;50.904;11.560;2023-12-20T14:37:15;6.60;99.90
48376;DHT22;34178;50.904;11.560;2023-12-20T14:39:42;6.60;99.90
48376;DHT22;34178;50.904;11.560;2023-12-20T14:42:08;6.60;99.90
48376;DHT22;34178;50.904;11.560;2023-12-20T14:44:37;6.60;99.90
48376;DHT22;34178;50.904;11.560;2023-12-20T14:47:04;6.60;99.90
48376;DHT22;34178;50.904;11.560;2023-12-20T14:49:30;6.70;99.90
48376;DHT22;34178;50.904;11.560;2023-12-20T14:51:56;6.70;99.90
48376;DHT22;34178;50.904;11.560;2023-12-20T14:54:21;6.70;99.90
48376;DHT22;34178;50.904;11.560;2023-12-20T14:56:47;6.80;99.90
48376;DHT22;34178;50.904;11.560;2023-12-20T14:59:13;6.80;99.90
48376;DHT22;34178;50.904;11.560;2023-12-20T15:01:39;6.80;99.90
48376;DHT22;34178;50.904;11.560;2023-12-20T15:04:06;6.80;99.90
48376;DHT22;34178;50.904;11.560;2023-12-20T15:06:32;6.80;99.90
48376;DHT22;34178;50.904;11.560;2023-12-20T15:08:59;6.80;99.90
48376;DHT22;34178;50.904;11.560;2023-12-20T15:11:25;6.80;99.90
48376;DHT22;34178;50.904;11.560;2023-12-20T15:13:51;6.70;99.90
48376;DHT22;34178;50.904;11.560;2023-12-20T15:16:22;6.70;99.90
48376;DHT22;34178;50.904;11.560;2023-12-20T15:18:48;6.70;99.90
48376;DHT22;34178;50.904;11.560;2023-12-20T15:21:15;6.70;99.90
48376;DHT22;34178;50.904;11.560;2023-12-20T15:23:41;6.60;99.90
48376;DHT22;34178;50.904;11.560;2023-12-20T15:26:20;6.60;99.90
48376;DHT22;34178;50.904;11.560;2023-12-20T15:28:46;6.60;99.90